Time;durP1;ratioP1;P1;durP2;ratioP2;P2;SDS_P1;SDS_P2;PMS_P1;PMS_P2;Temp;Humidity;BMP_temperature;BMP_pressure;BME280_temperature;BME280_humidity;BME280_pressure;Samples;Min_cycle;Max_cycle;Signal;HPM_P1;HPM_P2
2021/12/31 00:02:16;;;;;;;111.17;43.10;;;;;;;;;;5031458;28;20424;-79
2021/12/31 00:04:42;;;;;;;128.47;43.57;;;;;;;;;;5011131;28;20415;-79
2021/12/31 00:07:09;;;;;;;104.97;38.63;;;;;;;;;;5012077;28;20476;-79
2021/12/31 00:09:35;;;;;;;147.30;48.17;;;;;;;;;;5031170;28;21276;-79
2021/12/31 00:12:02;;;;;;;156.40;47.63;;;;;;;;;;5012541;28;21366;-79
2021/12/31 00:14:28;;;;;;;70.23;36.10;;;;;;;;;;5011263;28;20510;-79
2021/12/31 00:16:54;;;;;;;110.87;40.73;;;;;;;;;;5028192;28;20421;-79
2021/12/31 00:19:21;;;;;;;82.50;35.50;;;;;;;;;;5030299;28;20418;-79
2021/12/31 00:21:49;;;;;;;64.77;34.73;;;;;;;;;;5012918;28;21333;-79
2021/12/31 00:24:15;;;;;;;49.67;30.97;;;;;;;;;;5030534;28;20436;-78
2021/12/31 00:26:41;;;;;;;49.80;31.00;;;;;;;;;;5030535;28;20429;-79
2021/12/31 00:29:08;;;;;;;101.67;38.13;;;;;;;;;;5013279;28;20611;-79
2021/12/31 00:31:34;;;;;;;124.23;41.17;;;;;;;;;;5013101;28;20461;-79
2021/12/31 00:34:00;;;;;;;46.77;28.63;;;;;;;;;;5030374;28;20478;-79
2021/12/31 00:36:42;;;;;;;67.40;33.50;;;;;;;;;;5028705;28;20532;-79
2021/12/31 00:39:08;;;;;;;115.77;41.13;;;;;;;;;;5013085;28;20431;-79
2021/12/31 00:41:34;;;;;;;88.77;35.57;;;;;;;;;;5029371;28;20502;-79
2021/12/31 00:44:01;;;;;;;170.83;42.63;;;;;;;;;;5013870;28;20426;-78
2021/12/31 00:46:27;;;;;;;169.23;42.30;;;;;;;;;;5029372;28;21065;-79
2021/12/31 00:48:53;;;;;;;111.20;39.83;;;;;;;;;;5017561;28;20450;-79
2021/12/31 00:51:19;;;;;;;151.07;41.87;;;;;;;;;;5013650;28;20461;-78
2021/12/31 00:53:45;;;;;;;121.27;40.67;;;;;;;;;;5028385;28;20420;-79
2021/12/31 00:56:11;;;;;;;139.03;42.93;;;;;;;;;;5031042;28;20539;-79
2021/12/31 00:58:37;;;;;;;71.80;32.33;;;;;;;;;;5016710;28;20428;-79
2021/12/31 01:01:04;;;;;;;48.30;31.07;;;;;;;;;;5013283;28;20426;-79
2021/12/31 01:03:30;;;;;;;79.37;37.33;;;;;;;;;;5026883;28;20427;-78
2021/12/31 01:05:56;;;;;;;69.93;34.00;;;;;;;;;;5028163;28;21318;-79
2021/12/31 01:08:22;;;;;;;87.90;40.33;;;;;;;;;;5029599;28;20977;-79
2021/12/31 01:10:48;;;;;;;73.93;31.40;;;;;;;;;;5013122;28;21374;-78
2021/12/31 01:13:24;;;;;;;110.13;37.83;;;;;;;;;;5014206;28;21330;-79
2021/12/31 01:15:57;;;;;;;113.10;39.70;;;;;;;;;;5011262;28;21078;-79
2021/12/31 01:19:43;;;;;;;54.73;30.20;;;;;;;;;;5011116;28;20522;-79
2021/12/31 01:21:09;;;;;;;81.23;36.00;;;;;;;;;;5029303;28;20419;-79
2021/12/31 01:23:35;;;;;;;139.33;41.57;;;;;;;;;;5012141;28;20422;-78
2021/12/31 01:26:01;;;;;;;197.90;45.00;;;;;;;;;;5012438;28;22106;-78
2021/12/31 01:28:27;;;;;;;54.93;33.47;;;;;;;;;;5012445;28;20423;-78
2021/12/31 01:30:53;;;;;;;109.60;39.67;;;;;;;;;;5027810;28;20481;-79
2021/12/31 01:33:19;;;;;;;53.30;28.17;;;;;;;;;;5015789;28;20414;-78
2021/12/31 01:35:46;;;;;;;172.80;42.53;;;;;;;;;;5015918;28;20588;-78
2021/12/31 01:38:12;;;;;;;42.60;26.77;;;;;;;;;;5028730;28;20462;-78
2021/12/31 01:40:38;;;;;;;37.93;26.70;;;;;;;;;;5027820;28;20462;-79
2021/12/31 01:43:04;;;;;;;54.30;28.60;;;;;;;;;;5029167;28;21264;-79
2021/12/31 01:45:33;;;;;;;43.03;25.07;;;;;;;;;;5029973;28;21112;-78
2021/12/31 01:48:07;;;;;;;47.77;29.33;;;;;;;;;;5013703;28;20415;-78
2021/12/31 01:50:33;;;;;;;35.20;25.40;;;;;;;;;;5030377;28;21122;-78
2021/12/31 01:53:00;;;;;;;102.23;34.37;;;;;;;;;;5017725;28;20490;-78
2021/12/31 01:55:28;;;;;;;76.77;27.27;;;;;;;;;;5030131;28;20418;-78
2021/12/31 01:57:54;;;;;;;59.70;29.90;;;;;;;;;;5024890;28;20437;-78
2021/12/31 02:00:20;;;;;;;40.37;24.50;;;;;;;;;;5011329;28;20468;-78
2021/12/31 02:02:47;;;;;;;85.00;33.53;;;;;;;;;;5010919;28;20418;-78
2021/12/31 02:05:13;;;;;;;98.57;33.37;;;;;;;;;;5012562;28;20414;-78
2021/12/31 02:07:40;;;;;;;44.10;28.77;;;;;;;;;;5011816;28;20503;-78
2021/12/31 02:10:06;;;;;;;42.43;26.87;;;;;;;;;;5033540;28;20454;-78
2021/12/31 02:12:33;;;;;;;35.57;25.07;;;;;;;;;;5015642;28;20426;-78
2021/12/31 02:14:59;;;;;;;80.07;31.70;;;;;;;;;;5032571;28;20423;-79
2021/12/31 02:17:25;;;;;;;32.37;22.23;;;;;;;;;;5014594;28;20411;-78
2021/12/31 02:20:00;;;;;;;28.10;20.97;;;;;;;;;;5033259;28;20466;-79
2021/12/31 02:22:28;;;;;;;38.40;26.00;;;;;;;;;;5032878;28;20464;-78
2021/12/31 02:24:55;;;;;;;57.47;31.07;;;;;;;;;;5032487;28;20430;-78
2021/12/31 02:27:21;;;;;;;38.97;26.33;;;;;;;;;;5034606;28;20411;-78
2021/12/31 02:29:47;;;;;;;34.70;23.83;;;;;;;;;;5017612;28;20418;-78
2021/12/31 02:32:14;;;;;;;89.37;36.67;;;;;;;;;;5013156;28;20507;-78
2021/12/31 02:34:40;;;;;;;37.00;24.17;;;;;;;;;;5030253;28;20415;-79
2021/12/31 02:37:06;;;;;;;68.87;31.90;;;;;;;;;;5032565;28;20446;-78
2021/12/31 02:39:34;;;;;;;50.33;28.47;;;;;;;;;;5015073;28;21297;-78
2021/12/31 02:42:00;;;;;;;40.73;27.33;;;;;;;;;;5031280;28;20415;-78
2021/12/31 02:44:26;;;;;;;55.67;28.77;;;;;;;;;;5016681;28;20427;-78
2021/12/31 02:46:52;;;;;;;57.40;29.53;;;;;;;;;;5016757;28;20541;-79
2021/12/31 02:49:23;;;;;;;73.77;29.70;;;;;;;;;;5029982;28;20423;-79
2021/12/31 02:51:49;;;;;;;35.03;24.67;;;;;;;;;;5030266;28;20508;-78
2021/12/31 02:54:16;;;;;;;94.90;31.57;;;;;;;;;;5017222;28;20422;-78
2021/12/31 02:56:42;;;;;;;208.00;38.47;;;;;;;;;;5031141;28;20418;-78
2021/12/31 02:59:10;;;;;;;36.83;25.33;;;;;;;;;;5030540;28;20500;-78
2021/12/31 03:01:36;;;;;;;87.50;31.50;;;;;;;;;;5012917;28;21486;-78
2021/12/31 03:04:04;;;;;;;38.70;26.17;;;;;;;;;;5028375;28;21243;-78
2021/12/31 03:06:31;;;;;;;155.90;43.30;;;;;;;;;;5016348;28;20422;-78
2021/12/31 03:08:58;;;;;;;157.40;37.87;;;;;;;;;;5013979;28;20518;-78
2021/12/31 03:11:25;;;;;;;97.13;29.93;;;;;;;;;;5033257;28;20489;-78
2021/12/31 03:13:52;;;;;;;43.30;26.17;;;;;;;;;;5032469;28;20415;-78
2021/12/31 03:16:20;;;;;;;47.10;25.47;;;;;;;;;;5013673;28;20492;-78
2021/12/31 03:18:46;;;;;;;119.77;34.37;;;;;;;;;;5033004;28;20551;-79
2021/12/31 03:21:20;;;;;;;36.60;25.37;;;;;;;;;;5028188;28;20423;-78
2021/12/31 03:23:47;;;;;;;34.70;23.60;;;;;;;;;;5012568;28;20523;-78
2021/12/31 03:26:13;;;;;;;126.43;30.30;;;;;;;;;;5032584;28;20438;-78
2021/12/31 03:28:39;;;;;;;40.97;23.33;;;;;;;;;;5028077;28;21292;-78
2021/12/31 03:31:05;;;;;;;50.60;24.20;;;;;;;;;;5028975;28;20463;-78
2021/12/31 03:33:31;;;;;;;74.23;25.40;;;;;;;;;;5030398;28;20422;-78
2021/12/31 03:35:57;;;;;;;138.23;31.37;;;;;;;;;;5030855;28;21090;-78
2021/12/31 03:38:23;;;;;;;34.73;23.17;;;;;;;;;;5031227;28;20425;-78
2021/12/31 03:40:50;;;;;;;62.67;29.27;;;;;;;;;;5030454;28;20530;-79
2021/12/31 03:43:16;;;;;;;115.63;32.00;;;;;;;;;;5015188;28;20422;-78
2021/12/31 03:45:42;;;;;;;69.33;29.70;;;;;;;;;;5013049;28;20411;-78
2021/12/31 03:48:08;;;;;;;34.43;22.40;;;;;;;;;;5029362;28;20514;-78
2021/12/31 03:50:34;;;;;;;33.00;21.77;;;;;;;;;;5029992;28;20449;-78
2021/12/31 03:53:00;;;;;;;50.40;22.90;;;;;;;;;;5014612;28;20499;-78
2021/12/31 03:55:26;;;;;;;41.00;23.67;;;;;;;;;;5031020;28;20977;-78
2021/12/31 03:57:52;;;;;;;116.57;29.53;;;;;;;;;;5009832;28;21402;-78
2021/12/31 04:00:19;;;;;;;41.17;20.57;;;;;;;;;;5014069;28;21102;-78
2021/12/31 04:02:46;;;;;;;35.07;20.80;;;;;;;;;;5029737;28;21127;-78
2021/12/31 04:05:12;;;;;;;65.83;23.30;;;;;;;;;;5014586;28;20426;-78
2021/12/31 04:07:38;;;;;;;52.87;21.60;;;;;;;;;;5029258;28;20423;-79
2021/12/31 04:10:04;;;;;;;30.13;19.63;;;;;;;;;;5014123;28;20469;-78
2021/12/31 04:12:30;;;;;;;97.53;27.17;;;;;;;;;;5026993;28;20430;-78
2021/12/31 04:14:56;;;;;;;31.20;19.90;;;;;;;;;;5011724;28;21306;-78
2021/12/31 04:17:22;;;;;;;92.97;27.83;;;;;;;;;;5013354;28;20405;-78
2021/12/31 04:19:52;;;;;;;47.87;25.13;;;;;;;;;;5030485;28;21199;-79
2021/12/31 04:22:21;;;;;;;116.90;30.80;;;;;;;;;;5031244;28;20422;-78
2021/12/31 04:27:13;;;;;;;41.63;24.67;;;;;;;;;;5030761;28;20467;-79
2021/12/31 04:29:39;;;;;;;42.03;25.13;;;;;;;;;;5031206;28;20450;-79
2021/12/31 04:32:06;;;;;;;174.13;34.47;;;;;;;;;;5029820;28;20443;-78
2021/12/31 04:34:32;;;;;;;88.70;28.03;;;;;;;;;;5010870;28;21152;-79
2021/12/31 04:36:59;;;;;;;36.23;20.80;;;;;;;;;;5026982;28;20793;-78
2021/12/31 04:39:25;;;;;;;40.57;22.83;;;;;;;;;;5012554;28;20418;-78
2021/12/31 04:41:51;;;;;;;49.20;25.60;;;;;;;;;;5029877;28;20433;-79
2021/12/31 04:44:17;;;;;;;39.57;23.03;;;;;;;;;;5013925;28;20505;-79
2021/12/31 04:46:43;;;;;;;50.00;26.37;;;;;;;;;;5028839;28;20419;-78
2021/12/31 04:49:09;;;;;;;67.90;25.70;;;;;;;;;;5016356;28;20427;-78
2021/12/31 04:51:35;;;;;;;132.83;31.23;;;;;;;;;;5014121;28;20446;-78
2021/12/31 04:54:01;;;;;;;33.80;22.50;;;;;;;;;;5010162;28;20415;-79
2021/12/31 04:56:28;;;;;;;78.33;26.27;;;;;;;;;;5013878;28;20466;-79
2021/12/31 04:58:54;;;;;;;146.17;34.03;;;;;;;;;;5013019;28;20899;-78
2021/12/31 05:01:23;;;;;;;34.13;19.80;;;;;;;;;;5012206;28;20444;-79
2021/12/31 05:03:49;;;;;;;46.13;23.37;;;;;;;;;;5009948;28;20431;-79
2021/12/31 05:06:15;;;;;;;100.33;28.10;;;;;;;;;;5029876;28;20422;-79
2021/12/31 05:08:41;;;;;;;42.33;21.43;;;;;;;;;;5030895;28;21315;-79
2021/12/31 05:11:07;;;;;;;43.67;20.17;;;;;;;;;;5013060;28;20468;-79
2021/12/31 05:13:34;;;;;;;34.30;19.50;;;;;;;;;;5011503;28;20465;-79
2021/12/31 05:16:03;;;;;;;31.43;20.83;;;;;;;;;;5028010;28;20419;-79
2021/12/31 05:18:30;;;;;;;52.10;23.57;;;;;;;;;;5032109;28;20430;-79
2021/12/31 05:20:56;;;;;;;37.70;21.70;;;;;;;;;;5030928;28;20430;-78
2021/12/31 05:23:22;;;;;;;40.70;20.80;;;;;;;;;;5011194;28;20435;-78
2021/12/31 05:25:49;;;;;;;33.17;19.50;;;;;;;;;;5008110;28;20516;-78
2021/12/31 05:28:15;;;;;;;31.10;18.97;;;;;;;;;;5012528;28;20457;-79
2021/12/31 05:30:41;;;;;;;33.53;20.37;;;;;;;;;;5028357;28;20438;-79
2021/12/31 05:33:07;;;;;;;31.23;20.03;;;;;;;;;;5014222;28;20473;-78
2021/12/31 05:35:33;;;;;;;34.57;20.23;;;;;;;;;;5014700;28;20422;-78
2021/12/31 05:37:59;;;;;;;65.20;24.77;;;;;;;;;;5028832;28;20427;-78
2021/12/31 05:40:26;;;;;;;41.40;23.03;;;;;;;;;;5008253;28;20437;-78
2021/12/31 05:42:52;;;;;;;36.40;21.23;;;;;;;;;;5031947;28;20426;-78
2021/12/31 05:45:18;;;;;;;31.90;19.27;;;;;;;;;;5014911;28;20438;-79
2021/12/31 05:47:46;;;;;;;44.77;22.60;;;;;;;;;;5028983;28;20468;-79
2021/12/31 05:50:27;;;;;;;42.67;23.77;;;;;;;;;;5017910;28;20719;-79
2021/12/31 05:52:54;;;;;;;34.47;20.60;;;;;;;;;;5034204;28;21263;-78
2021/12/31 05:55:20;;;;;;;37.00;20.87;;;;;;;;;;5015264;28;20433;-78
2021/12/31 05:57:46;;;;;;;33.30;20.40;;;;;;;;;;5032092;28;20415;-79
2021/12/31 06:00:12;;;;;;;34.83;20.00;;;;;;;;;;5031239;28;20565;-79
2021/12/31 06:02:38;;;;;;;37.73;20.93;;;;;;;;;;5034841;28;20453;-78
2021/12/31 06:05:04;;;;;;;33.80;20.17;;;;;;;;;;5016835;28;20418;-78
2021/12/31 06:07:30;;;;;;;33.97;20.37;;;;;;;;;;5032836;28;20422;-78
2021/12/31 06:09:56;;;;;;;39.60;23.00;;;;;;;;;;5033724;28;20430;-78
2021/12/31 06:12:25;;;;;;;46.03;26.20;;;;;;;;;;5032294;28;20509;-78
2021/12/31 06:14:58;;;;;;;39.63;23.20;;;;;;;;;;5017261;28;21073;-78
2021/12/31 06:17:26;;;;;;;35.70;22.33;;;;;;;;;;5031734;28;20468;-78
2021/12/31 06:19:53;;;;;;;30.73;19.43;;;;;;;;;;5033642;28;21277;-78
2021/12/31 06:22:19;;;;;;;36.20;20.93;;;;;;;;;;5015854;28;20454;-78
2021/12/31 06:24:45;;;;;;;33.87;20.80;;;;;;;;;;5014117;28;21278;-78
2021/12/31 06:27:15;;;;;;;30.30;18.27;;;;;;;;;;5015339;28;20457;-79
2021/12/31 06:29:41;;;;;;;26.73;17.87;;;;;;;;;;5032420;28;20788;-79
2021/12/31 06:32:07;;;;;;;34.40;22.53;;;;;;;;;;5031722;28;20442;-78
2021/12/31 06:34:33;;;;;;;30.77;20.03;;;;;;;;;;5015469;28;20426;-79
2021/12/31 06:36:59;;;;;;;32.67;20.70;;;;;;;;;;5013687;28;20426;-78
2021/12/31 06:39:26;;;;;;;29.70;19.77;;;;;;;;;;5033003;28;21373;-78
2021/12/31 06:41:53;;;;;;;43.80;24.83;;;;;;;;;;5014976;28;20430;-79
2021/12/31 06:44:19;;;;;;;52.87;28.67;;;;;;;;;;5034706;28;20423;-79
2021/12/31 06:46:45;;;;;;;120.03;35.27;;;;;;;;;;5018344;28;20426;-78
2021/12/31 06:49:11;;;;;;;104.77;34.50;;;;;;;;;;5031428;28;20452;-78
2021/12/31 06:51:37;;;;;;;49.57;27.37;;;;;;;;;;5015989;28;20458;-78
2021/12/31 06:54:03;;;;;;;47.73;25.47;;;;;;;;;;5027874;28;20408;-78
2021/12/31 06:56:30;;;;;;;35.67;21.67;;;;;;;;;;5012704;28;20517;-78
2021/12/31 06:58:56;;;;;;;57.80;28.57;;;;;;;;;;5034721;28;21188;-78
2021/12/31 07:01:24;;;;;;;34.03;22.17;;;;;;;;;;5015450;28;21348;-78
2021/12/31 07:03:50;;;;;;;52.23;26.77;;;;;;;;;;5031084;28;20533;-79
2021/12/31 07:06:16;;;;;;;49.40;25.97;;;;;;;;;;5012538;28;20500;-78
2021/12/31 07:08:42;;;;;;;35.97;22.90;;;;;;;;;;5033223;28;21499;-79
2021/12/31 07:11:08;;;;;;;38.37;23.93;;;;;;;;;;5014215;28;20450;-79
2021/12/31 07:13:35;;;;;;;42.97;25.70;;;;;;;;;;5029836;28;21196;-79
2021/12/31 07:16:02;;;;;;;48.23;26.90;;;;;;;;;;5030755;28;20469;-78
2021/12/31 07:18:28;;;;;;;24.57;18.30;;;;;;;;;;5031915;28;20471;-79
2021/12/31 07:20:54;;;;;;;19.80;14.97;;;;;;;;;;5033124;28;20705;-79
2021/12/31 07:23:21;;;;;;;20.60;14.50;;;;;;;;;;5015970;28;20434;-79
2021/12/31 07:25:47;;;;;;;20.90;15.80;;;;;;;;;;5030289;28;20496;-79
2021/12/31 07:28:14;;;;;;;52.57;26.13;;;;;;;;;;5028082;28;20418;-78
2021/12/31 07:30:41;;;;;;;42.03;20.57;;;;;;;;;;5030748;28;20466;-79
2021/12/31 07:33:13;;;;;;;55.53;24.53;;;;;;;;;;5027808;28;20427;-78
2021/12/31 07:35:39;;;;;;;41.30;23.37;;;;;;;;;;5027083;28;20664;-78
2021/12/31 07:38:06;;;;;;;21.53;15.87;;;;;;;;;;5012280;28;20411;-79
2021/12/31 07:40:39;;;;;;;23.83;17.13;;;;;;;;;;5030533;28;20520;-78
2021/12/31 07:43:10;;;;;;;23.80;17.97;;;;;;;;;;5013717;28;20425;-79
2021/12/31 07:45:36;;;;;;;49.80;25.10;;;;;;;;;;5028643;28;20418;-79
2021/12/31 07:48:03;;;;;;;32.57;22.17;;;;;;;;;;5027046;28;20427;-78
2021/12/31 07:50:30;;;;;;;31.40;20.93;;;;;;;;;;5030536;28;20461;-78
2021/12/31 07:52:56;;;;;;;55.20;24.97;;;;;;;;;;5011824;28;20426;-78
2021/12/31 07:55:22;;;;;;;27.70;20.03;;;;;;;;;;5030812;28;20418;-79
2021/12/31 07:57:48;;;;;;;36.20;21.97;;;;;;;;;;5026893;28;20427;-78
2021/12/31 08:00:14;;;;;;;54.47;24.63;;;;;;;;;;5012398;28;21242;-79
2021/12/31 08:02:40;;;;;;;22.87;17.17;;;;;;;;;;5030649;28;21093;-78
2021/12/31 08:05:07;;;;;;;32.27;20.43;;;;;;;;;;5030840;28;20487;-78
2021/12/31 08:07:33;;;;;;;32.10;22.20;;;;;;;;;;5027926;28;20423;-78
2021/12/31 08:09:59;;;;;;;36.17;21.60;;;;;;;;;;5012315;28;20414;-78
2021/12/31 08:12:25;;;;;;;21.03;15.53;;;;;;;;;;5014960;28;20462;-78
2021/12/31 08:14:51;;;;;;;18.80;14.53;;;;;;;;;;5012448;28;20431;-78
2021/12/31 08:17:17;;;;;;;24.03;17.37;;;;;;;;;;5028969;28;20549;-78
2021/12/31 08:19:43;;;;;;;47.40;20.27;;;;;;;;;;5013438;28;20838;-78
2021/12/31 08:22:10;;;;;;;35.60;18.40;;;;;;;;;;5012728;28;20513;-78
2021/12/31 08:24:36;;;;;;;17.87;14.57;;;;;;;;;;5013797;28;20442;-78
2021/12/31 08:27:02;;;;;;;46.27;22.47;;;;;;;;;;5027626;28;20426;-78
2021/12/31 08:29:28;;;;;;;21.07;16.67;;;;;;;;;;5011188;28;20844;-78
2021/12/31 08:31:54;;;;;;;24.03;17.67;;;;;;;;;;5026656;28;21307;-82
2021/12/31 08:34:23;;;;;;;21.10;16.60;;;;;;;;;;5013795;28;20426;-83
2021/12/31 08:36:49;;;;;;;24.97;18.63;;;;;;;;;;5013003;28;20475;-82
2021/12/31 08:39:15;;;;;;;26.90;16.13;;;;;;;;;;5022830;28;20500;-82
2021/12/31 08:41:41;;;;;;;45.00;23.47;;;;;;;;;;5013082;28;20462;-82
2021/12/31 08:44:08;;;;;;;64.23;27.50;;;;;;;;;;5014134;28;20764;-82
2021/12/31 08:46:35;;;;;;;64.83;29.97;;;;;;;;;;5028383;28;20445;-82
2021/12/31 08:49:01;;;;;;;39.53;24.60;;;;;;;;;;5012514;28;20529;-81
2021/12/31 08:51:27;;;;;;;29.03;18.57;;;;;;;;;;5025480;28;20556;-81
2021/12/31 08:54:06;;;;;;;24.27;17.70;;;;;;;;;;5027664;28;21035;-81
2021/12/31 08:56:33;;;;;;;53.00;22.50;;;;;;;;;;5026087;28;21156;-82
2021/12/31 08:58:59;;;;;;;59.03;26.13;;;;;;;;;;5028375;28;20437;-82
2021/12/31 09:01:25;;;;;;;42.30;20.97;;;;;;;;;;5012149;28;20435;-82
2021/12/31 09:03:51;;;;;;;27.80;18.73;;;;;;;;;;5007927;28;20756;-82
2021/12/31 09:06:20;;;;;;;25.27;17.70;;;;;;;;;;5008539;28;20521;-82
2021/12/31 09:08:47;;;;;;;24.93;18.20;;;;;;;;;;5011163;28;20455;-82
2021/12/31 09:11:13;;;;;;;26.53;18.20;;;;;;;;;;5011447;28;20465;-82
2021/12/31 09:13:41;;;;;;;22.87;16.37;;;;;;;;;;5010007;28;20415;-82
2021/12/31 09:16:49;;;;;;;20.27;15.37;;;;;;;;;;5012678;28;20429;-82
2021/12/31 09:19:15;;;;;;;60.70;22.63;;;;;;;;;;4968083;28;20463;-82
2021/12/31 09:21:41;;;;;;;39.67;21.80;;;;;;;;;;5031733;28;20415;-81
2021/12/31 09:24:07;;;;;;;41.10;23.30;;;;;;;;;;5036026;28;21440;-81
2021/12/31 09:26:33;;;;;;;33.80;21.73;;;;;;;;;;5016496;28;21176;-82
2021/12/31 09:29:00;;;;;;;25.43;19.03;;;;;;;;;;5013646;28;20418;-81
2021/12/31 09:31:26;;;;;;;25.67;18.80;;;;;;;;;;5015781;28;20496;-80
2021/12/31 09:33:52;;;;;;;32.47;21.03;;;;;;;;;;5018003;28;20488;-80
2021/12/31 09:36:18;;;;;;;25.53;19.23;;;;;;;;;;5033710;28;20418;-79
2021/12/31 09:38:44;;;;;;;36.40;23.63;;;;;;;;;;5026241;28;21421;-79
2021/12/31 09:41:10;;;;;;;26.57;19.77;;;;;;;;;;5029140;28;20429;-79
2021/12/31 09:43:39;;;;;;;19.97;15.47;;;;;;;;;;5017258;28;20414;-79
2021/12/31 09:46:06;;;;;;;23.13;16.13;;;;;;;;;;5017501;28;21302;-80
2021/12/31 09:48:32;;;;;;;32.77;19.40;;;;;;;;;;5015255;28;20418;-79
2021/12/31 09:51:00;;;;;;;31.03;21.00;;;;;;;;;;5026740;28;20503;-79
2021/12/31 09:53:26;;;;;;;34.87;22.23;;;;;;;;;;5014563;28;20457;-79
2021/12/31 09:55:56;;;;;;;28.03;20.57;;;;;;;;;;5028345;28;20420;-79
2021/12/31 09:58:24;;;;;;;31.10;21.73;;;;;;;;;;5014730;28;20429;-79
2021/12/31 10:00:52;;;;;;;28.77;20.13;;;;;;;;;;5032664;28;20437;-79
2021/12/31 10:03:22;;;;;;;26.40;19.10;;;;;;;;;;5010827;28;20423;-79
2021/12/31 10:05:49;;;;;;;26.57;19.37;;;;;;;;;;5026913;28;21559;-79
2021/12/31 10:08:16;;;;;;;25.03;18.63;;;;;;;;;;5015354;28;20429;-79
2021/12/31 10:10:42;;;;;;;36.87;21.57;;;;;;;;;;5031118;28;20464;-79
2021/12/31 10:13:08;;;;;;;26.83;19.27;;;;;;;;;;5011273;28;20423;-78
2021/12/31 10:15:39;;;;;;;34.67;24.43;;;;;;;;;;5028535;28;20441;-79
2021/12/31 10:18:12;;;;;;;35.30;23.53;;;;;;;;;;5030538;28;20415;-79
2021/12/31 10:20:49;;;;;;;37.40;23.93;;;;;;;;;;5017416;28;20420;-78
2021/12/31 10:23:16;;;;;;;27.63;21.10;;;;;;;;;;5017552;28;21102;-78
2021/12/31 10:25:42;;;;;;;28.67;21.10;;;;;;;;;;5031221;28;20430;-78
2021/12/31 10:28:10;;;;;;;32.07;23.10;;;;;;;;;;5026401;28;20937;-78
2021/12/31 10:30:36;;;;;;;29.03;21.00;;;;;;;;;;5012648;28;20456;-78
2021/12/31 10:33:02;;;;;;;26.93;18.80;;;;;;;;;;5029247;28;20426;-79
2021/12/31 10:35:37;;;;;;;25.83;18.83;;;;;;;;;;5031086;28;20422;-78
2021/12/31 10:38:06;;;;;;;22.70;17.97;;;;;;;;;;5015996;28;20432;-78
2021/12/31 10:40:40;;;;;;;21.30;15.40;;;;;;;;;;5018297;28;21225;-79
2021/12/31 10:43:12;;;;;;;24.93;17.87;;;;;;;;;;5028995;28;20430;-79
2021/12/31 10:45:39;;;;;;;28.20;20.37;;;;;;;;;;5012574;28;21088;-80
2021/12/31 10:48:09;;;;;;;29.97;21.10;;;;;;;;;;5028161;28;20484;-79
2021/12/31 10:50:35;;;;;;;28.60;20.83;;;;;;;;;;5017290;28;20458;-80
2021/12/31 10:53:12;;;;;;;25.53;19.43;;;;;;;;;;5014341;28;21348;-79
2021/12/31 10:55:39;;;;;;;27.47;21.20;;;;;;;;;;5014101;28;20841;-79
2021/12/31 10:58:06;;;;;;;21.33;17.00;;;;;;;;;;5015517;28;20430;-80
2021/12/31 11:00:37;;;;;;;20.63;16.57;;;;;;;;;;5014213;28;20419;-79
2021/12/31 11:03:03;;;;;;;22.07;16.63;;;;;;;;;;5012515;28;20462;-79
2021/12/31 11:05:29;;;;;;;22.93;17.10;;;;;;;;;;5032920;28;20453;-79
2021/12/31 11:07:58;;;;;;;22.30;17.97;;;;;;;;;;5011857;28;20426;-79
2021/12/31 11:10:25;;;;;;;25.17;19.20;;;;;;;;;;5030295;28;20438;-80
2021/12/31 11:12:53;;;;;;;24.90;18.37;;;;;;;;;;5015227;28;20426;-80
2021/12/31 11:15:19;;;;;;;21.77;17.17;;;;;;;;;;5030099;28;20794;-80
2021/12/31 11:17:45;;;;;;;27.00;19.23;;;;;;;;;;5011948;28;20466;-80
2021/12/31 11:20:13;;;;;;;23.50;18.07;;;;;;;;;;5013989;28;20433;-80
2021/12/31 11:22:39;;;;;;;28.77;20.70;;;;;;;;;;5028405;28;20419;-82
2021/12/31 11:25:26;;;;;;;28.80;20.70;;;;;;;;;;5011952;28;20438;-78
2021/12/31 11:27:53;;;;;;;28.83;21.73;;;;;;;;;;5009346;28;20426;-78
2021/12/31 11:30:28;;;;;;;20.87;16.90;;;;;;;;;;5026309;28;20458;-79
2021/12/31 11:33:20;;;;;;;20.37;15.63;;;;;;;;;;5026959;28;20426;-79
2021/12/31 11:35:59;;;;;;;21.60;17.47;;;;;;;;;;5028139;28;20446;-77
2021/12/31 11:38:25;;;;;;;25.93;19.87;;;;;;;;;;5011678;28;20410;-79
2021/12/31 11:41:05;;;;;;;24.13;19.23;;;;;;;;;;5008815;28;20434;-79
2021/12/31 11:43:31;;;;;;;29.03;19.80;;;;;;;;;;5026972;28;20462;-79
2021/12/31 11:51:12;;;;;;;25.37;17.43;;;;;;;;;;5028193;28;20469;-79
2021/12/31 11:54:06;;;;;;;24.97;17.67;;;;;;;;;;5027421;28;20426;-78
2021/12/31 11:56:35;;;;;;;22.73;16.97;;;;;;;;;;4994346;28;20558;-79
2021/12/31 11:59:16;;;;;;;20.20;15.83;;;;;;;;;;5028502;28;21221;-78
2021/12/31 12:01:50;;;;;;;21.97;17.80;;;;;;;;;;5025979;28;20429;-78
2021/12/31 12:04:19;;;;;;;22.37;17.03;;;;;;;;;;5011959;28;20435;-77
2021/12/31 12:06:59;;;;;;;24.73;17.63;;;;;;;;;;5008167;28;20430;-79
2021/12/31 12:09:45;;;;;;;20.30;16.90;;;;;;;;;;5027695;28;21440;-78
2021/12/31 12:12:15;;;;;;;23.23;17.70;;;;;;;;;;5000849;28;20552;-78
2021/12/31 12:14:46;;;;;;;21.57;17.30;;;;;;;;;;5026402;28;21017;-78
2021/12/31 12:17:13;;;;;;;18.20;15.73;;;;;;;;;;5006509;28;20461;-78
2021/12/31 12:19:51;;;;;;;18.47;14.77;;;;;;;;;;5027152;28;20426;-78
2021/12/31 12:22:25;;;;;;;22.97;19.13;;;;;;;;;;5009574;28;21783;-78
2021/12/31 12:24:52;;;;;;;24.63;18.67;;;;;;;;;;5022728;28;20453;-77
2021/12/31 12:27:21;;;;;;;23.80;18.60;;;;;;;;;;5026196;28;20422;-78
2021/12/31 12:29:48;;;;;;;24.27;18.50;;;;;;;;;;5010613;28;20526;-78
2021/12/31 12:32:15;;;;;;;23.20;18.77;;;;;;;;;;5005406;28;20632;-77
2021/12/31 12:34:42;;;;;;;26.07;19.80;;;;;;;;;;5026713;28;20510;-77
2021/12/31 12:37:08;;;;;;;24.03;19.67;;;;;;;;;;5028729;28;21018;-78
2021/12/31 12:39:34;;;;;;;22.60;17.60;;;;;;;;;;5029850;28;20516;-78
2021/12/31 12:42:00;;;;;;;26.73;19.80;;;;;;;;;;5031070;28;20415;-78
2021/12/31 12:44:28;;;;;;;24.07;18.53;;;;;;;;;;5027018;28;20442;-78
2021/12/31 12:46:55;;;;;;;24.77;19.90;;;;;;;;;;5012153;28;20545;-77
2021/12/31 12:49:21;;;;;;;25.83;19.70;;;;;;;;;;5029785;28;20418;-78
2021/12/31 12:51:48;;;;;;;22.67;17.57;;;;;;;;;;5009705;28;20462;-79
2021/12/31 12:54:19;;;;;;;24.07;19.10;;;;;;;;;;5010981;28;20410;-78
2021/12/31 12:56:45;;;;;;;26.03;20.03;;;;;;;;;;5026258;28;20521;-78
2021/12/31 12:59:19;;;;;;;24.93;18.30;;;;;;;;;;5011908;28;20528;-78
2021/12/31 13:01:49;;;;;;;29.97;21.73;;;;;;;;;;5027996;28;20545;-78
2021/12/31 13:04:16;;;;;;;30.07;21.67;;;;;;;;;;5026864;28;20508;-78
2021/12/31 13:06:54;;;;;;;26.37;20.80;;;;;;;;;;5010408;28;20462;-78
2021/12/31 13:09:23;;;;;;;31.87;21.40;;;;;;;;;;5007312;28;20430;-78
2021/12/31 13:11:51;;;;;;;33.03;24.07;;;;;;;;;;5010594;28;20461;-78
2021/12/31 13:14:27;;;;;;;35.63;25.17;;;;;;;;;;5025906;28;20652;-78
2021/12/31 13:16:54;;;;;;;34.17;24.30;;;;;;;;;;5026512;28;21240;-78
2021/12/31 13:19:31;;;;;;;35.00;24.70;;;;;;;;;;5011637;28;20441;-77
2021/12/31 13:22:02;;;;;;;33.77;24.77;;;;;;;;;;5028112;28;20491;-77
2021/12/31 13:24:28;;;;;;;32.73;23.70;;;;;;;;;;5010680;28;20434;-76
2021/12/31 13:26:55;;;;;;;29.20;22.13;;;;;;;;;;5007985;28;20430;-77
2021/12/31 13:29:35;;;;;;;33.30;24.07;;;;;;;;;;5025727;28;20468;-77
2021/12/31 13:32:06;;;;;;;34.37;23.83;;;;;;;;;;5023627;28;20454;-77
2021/12/31 13:34:58;;;;;;;32.50;23.23;;;;;;;;;;5012331;28;20422;-78
2021/12/31 13:37:30;;;;;;;42.10;27.83;;;;;;;;;;5007694;28;20422;-78
2021/12/31 13:40:06;;;;;;;34.43;24.93;;;;;;;;;;5008209;28;20440;-77
2021/12/31 13:42:32;;;;;;;37.87;25.63;;;;;;;;;;5010136;28;21219;-78
2021/12/31 13:44:58;;;;;;;34.73;25.13;;;;;;;;;;5027357;28;20529;-78
2021/12/31 13:47:26;;;;;;;37.13;26.90;;;;;;;;;;5010976;28;20449;-79
2021/12/31 13:49:53;;;;;;;38.87;27.90;;;;;;;;;;5012376;28;20580;-78
2021/12/31 13:52:19;;;;;;;39.63;28.50;;;;;;;;;;5027071;28;20458;-78
2021/12/31 13:54:47;;;;;;;36.60;26.37;;;;;;;;;;5026905;28;20429;-80
2021/12/31 13:57:17;;;;;;;39.00;26.97;;;;;;;;;;5012688;28;20418;-79
2021/12/31 13:59:43;;;;;;;39.90;29.57;;;;;;;;;;5013237;28;20491;-79
2021/12/31 14:02:20;;;;;;;44.03;31.43;;;;;;;;;;4997613;28;21072;-79
2021/12/31 14:04:57;;;;;;;43.50;31.33;;;;;;;;;;4980370;28;20450;-79
2021/12/31 14:07:30;;;;;;;44.17;30.47;;;;;;;;;;5032730;28;20487;-80
2021/12/31 14:10:01;;;;;;;46.67;32.03;;;;;;;;;;5033020;28;21821;-80
2021/12/31 14:12:27;;;;;;;45.13;32.20;;;;;;;;;;5029331;28;20438;-79
2021/12/31 14:14:54;;;;;;;44.17;30.57;;;;;;;;;;5032568;28;20430;-79
2021/12/31 14:17:20;;;;;;;37.73;27.40;;;;;;;;;;5032368;28;21459;-81
2021/12/31 14:19:46;;;;;;;44.40;29.97;;;;;;;;;;5030958;28;21056;-83
2021/12/31 14:22:15;;;;;;;43.03;29.73;;;;;;;;;;5013384;28;20422;-83
2021/12/31 14:24:41;;;;;;;49.70;33.17;;;;;;;;;;5012015;28;20442;-83
2021/12/31 14:27:07;;;;;;;42.57;30.00;;;;;;;;;;5028727;28;20422;-83
2021/12/31 14:29:34;;;;;;;49.00;31.27;;;;;;;;;;5032359;28;21228;-84